Time;durP1;ratioP1;P1;durP2;ratioP2;P2;SDS_P1;SDS_P2;PMS_P1;PMS_P2;Temp;Humidity;BMP_temperature;BMP_pressure;BME280_temperature;BME280_humidity;BME280_pressure;Samples;Min_cycle;Max_cycle;Signal;HPM_P1;HPM_P2
2021/06/15 00:02:10;;;;;;;8.93;4.93;;;20.20;99.90;;;;;;6748311;87;20200;-78
2021/06/15 00:12:11;;;;;;;8.70;4.93;;;20.40;99.90;;;;;;6752247;87;20197;-76
2021/06/15 00:22:11;;;;;;;9.73;4.68;;;20.20;99.90;;;;;;6749544;87;20199;-78
2021/06/15 00:32:12;;;;;;;12.35;5.15;;;20.10;99.90;;;;;;6750842;88;20707;-77
2021/06/15 00:42:13;;;;;;;12.52;5.72;;;19.90;99.90;;;;;;6751684;87;20227;-77
2021/06/15 00:52:14;;;;;;;11.82;5.30;;;19.80;99.90;;;;;;6755143;87;20924;-77
2021/06/15 01:02:14;;;;;;;10.23;5.90;;;19.80;99.90;;;;;;6749247;87;20203;-75
2021/06/15 01:12:30;;;;;;;10.25;5.87;;;19.70;99.90;;;;;;6748668;88;20192;-77
2021/06/15 01:23:23;;;;;;;10.30;6.10;;;19.60;99.90;;;;;;6749133;87;20257;-79
2021/06/15 01:33:24;;;;;;;9.57;5.85;;;19.30;99.90;;;;;;6750556;87;20192;-77
2021/06/15 01:43:30;;;;;;;10.32;6.12;;;19.30;99.90;;;;;;6747218;88;20731;-76
2021/06/15 01:53:35;;;;;;;13.77;6.28;;;19.10;99.90;;;;;;6750694;87;20184;-76
2021/06/15 02:03:35;;;;;;;9.93;5.93;;;19.20;99.90;;;;;;6747131;87;20249;-76
2021/06/15 02:13:39;;;;;;;11.97;6.63;;;19.30;99.90;;;;;;6754200;87;20314;-77
2021/06/15 02:23:44;;;;;;;11.37;6.30;;;19.30;99.90;;;;;;6750799;88;20702;-77
2021/06/15 02:33:48;;;;;;;14.02;6.32;;;19.10;99.90;;;;;;6749042;87;20234;-77
2021/06/15 02:43:51;;;;;;;11.67;6.00;;;19.10;99.90;;;;;;6749877;87;20749;-77
2021/06/15 02:54:05;;;;;;;13.48;6.97;;;18.60;99.90;;;;;;6746393;87;20597;-79
2021/06/15 03:04:05;;;;;;;14.13;6.95;;;18.40;99.90;;;;;;6746441;87;20185;-77
2021/06/15 03:14:14;;;;;;;13.82;7.80;;;18.10;99.90;;;;;;6749509;87;20200;-78
2021/06/15 03:24:21;;;;;;;11.60;6.87;;;18.00;99.90;;;;;;6753468;88;20184;-75
2021/06/15 03:34:28;;;;;;;11.70;7.03;;;17.80;99.90;;;;;;6753933;88;20176;-75
2021/06/15 03:44:29;;;;;;;12.27;7.32;;;17.90;99.90;;;;;;6753566;88;20194;-76
2021/06/15 03:54:32;;;;;;;13.30;7.80;;;18.00;99.90;;;;;;6753591;88;20693;-76
2021/06/15 04:04:37;;;;;;;14.68;8.10;;;17.70;99.90;;;;;;6749075;88;20217;-76
2021/06/15 04:14:38;;;;;;;16.67;8.10;;;17.60;99.90;;;;;;6753002;88;20218;-75
2021/06/15 04:24:43;;;;;;;11.77;7.95;;;17.60;99.90;;;;;;6753136;88;20750;-76
2021/06/15 04:34:48;;;;;;;12.63;7.68;;;17.70;99.90;;;;;;6752790;88;20968;-77
2021/06/15 04:44:50;;;;;;;14.77;8.38;;;17.80;99.90;;;;;;6753013;88;20195;-77
2021/06/15 04:54:52;;;;;;;12.70;8.25;;;18.20;99.90;;;;;;6753193;88;20195;-75
2021/06/15 05:04:54;;;;;;;16.62;8.55;;;18.40;99.90;;;;;;6753369;88;20257;-76
2021/06/15 05:14:56;;;;;;;15.32;10.15;;;18.70;99.90;;;;;;6752904;88;20351;-77
2021/06/15 05:25:01;;;;;;;21.77;10.80;;;19.00;99.90;;;;;;6753867;88;20258;-76
2021/06/15 05:35:02;;;;;;;18.87;11.12;;;19.20;99.90;;;;;;6755918;88;20286;-77
2021/06/15 05:45:03;;;;;;;23.08;12.13;;;19.50;99.90;;;;;;6754143;88;20603;-76
2021/06/15 05:55:04;;;;;;;25.42;13.38;;;19.60;99.90;;;;;;6755489;88;20221;-77
2021/06/15 06:15:13;;;;;;;27.33;15.18;;;20.70;99.90;;;;;;6742577;87;21006;-77
2021/06/15 06:25:14;;;;;;;27.17;16.00;;;21.10;99.90;;;;;;6745061;87;20602;-78
2021/06/15 06:35:16;;;;;;;28.25;16.52;;;21.30;99.90;;;;;;6735529;88;20196;-75
2021/06/15 06:45:19;;;;;;;27.45;15.05;;;21.60;99.90;;;;;;6735903;88;20665;-77
2021/06/15 06:55:20;;;;;;;24.15;13.65;;;21.60;99.90;;;;;;6736363;88;20208;-78
2021/06/15 07:05:21;;;;;;;20.25;13.00;;;22.20;99.90;;;;;;6736230;88;20758;-76
2021/06/15 07:15:22;;;;;;;16.80;12.07;;;23.00;99.90;;;;;;6736789;88;20187;-75
2021/06/15 07:25:23;;;;;;;20.20;11.63;;;23.90;99.90;;;;;;6736668;88;20272;-75
2021/06/15 07:35:25;;;;;;;17.95;11.12;;;25.00;99.90;;;;;;6735414;88;20311;-77
2021/06/15 07:45:29;;;;;;;19.15;10.65;;;25.60;99.90;;;;;;6734775;88;20226;-79
2021/06/15 07:55:30;;;;;;;19.67;10.75;;;26.20;99.90;;;;;;6731900;88;20388;-78
2021/06/15 08:05:30;;;;;;;16.35;10.20;;;26.50;99.90;;;;;;6735905;88;20285;-77
2021/06/15 08:15:31;;;;;;;15.98;10.00;;;27.00;99.70;;;;;;6735428;88;20806;-77
2021/06/15 08:25:32;;;;;;;18.12;9.35;;;27.90;98.40;;;;;;6734598;88;20184;-77
2021/06/15 08:35:33;;;;;;;19.67;10.20;;;27.90;97.60;;;;;;6734647;88;20195;-77
2021/06/15 08:45:34;;;;;;;15.48;9.32;;;28.80;96.60;;;;;;6734145;88;20315;-78
2021/06/15 08:55:37;;;;;;;14.63;9.45;;;29.10;95.40;;;;;;6734378;88;20625;-77
2021/06/15 09:05:38;;;;;;;16.15;9.27;;;29.50;95.60;;;;;;6733272;88;20221;-77
2021/06/15 09:15:44;;;;;;;16.60;9.52;;;29.80;94.60;;;;;;6733650;88;20779;-77
2021/06/15 09:25:48;;;;;;;14.52;7.85;;;30.30;92.80;;;;;;6734276;88;20164;-77
2021/06/15 09:35:49;;;;;;;17.10;8.38;;;30.40;91.80;;;;;;6730354;88;20214;-77
2021/06/15 09:45:49;;;;;;;14.35;7.55;;;31.20;89.50;;;;;;6734517;88;20220;-77
2021/06/15 09:55:51;;;;;;;14.52;8.20;;;31.10;88.30;;;;;;6733805;88;20686;-76
2021/06/15 10:05:52;;;;;;;;;;;31.30;86.00;;;;;;6733641;88;20660;-76
2021/06/15 10:15:52;;;;;;;10.00;6.18;;;31.50;83.80;;;;;;6735109;87;20160;-78
2021/06/15 10:25:53;;;;;;;10.83;5.00;;;32.10;79.30;;;;;;6745758;88;20768;-76
2021/06/15 10:35:57;;;;;;;7.83;4.67;;;32.00;78.60;;;;;;6750387;87;20217;-77
2021/06/15 10:46:03;;;;;;;6.70;4.05;;;33.40;75.50;;;;;;6746603;87;20201;-76
2021/06/15 10:56:05;;;;;;;6.35;3.75;;;32.40;72.80;;;;;;6753053;88;20182;-78
2021/06/15 11:06:05;;;;;;;9.02;4.28;;;33.00;72.20;;;;;;6754956;87;20187;-77
2021/06/15 11:16:18;;;;;;;7.73;4.30;;;33.50;73.80;;;;;;6747830;87;20277;-77
2021/06/15 11:26:18;;;;;;;9.32;4.22;;;33.60;73.30;;;;;;6760348;87;21031;-77
2021/06/15 11:36:51;;;;;;;13.60;4.05;;;34.00;72.10;;;;;;6754899;87;20208;-77
2021/06/15 11:47:21;;;;;;;6.62;3.90;;;34.40;72.60;;;;;;6757484;88;20181;-78
2021/06/15 11:57:22;;;;;;;8.20;4.03;;;34.70;72.20;;;;;;6753548;87;20221;-78
2021/06/15 12:07:22;;;;;;;9.48;4.03;;;34.50;70.80;;;;;;6747831;88;20348;-79
2021/06/15 12:17:23;;;;;;;7.05;4.55;;;34.60;71.00;;;;;;6750135;87;20306;-78
2021/06/15 12:27:23;;;;;;;6.93;3.70;;;34.60;70.10;;;;;;6742994;87;20184;-76
2021/06/15 12:37:25;;;;;;;5.90;4.00;;;34.10;70.70;;;;;;6744196;87;20210;-78
2021/06/15 12:47:28;;;;;;;7.20;4.00;;;34.00;71.30;;;;;;6742393;87;20178;-79
2021/06/15 12:57:29;;;;;;;5.53;3.50;;;33.10;71.50;;;;;;6741202;87;20207;-78
2021/06/15 13:07:34;;;;;;;7.62;4.28;;;32.30;73.80;;;;;;6741176;87;20188;-77
2021/06/15 13:17:34;;;;;;;6.35;3.85;;;31.30;75.00;;;;;;6741854;87;20702;-77
2021/06/15 13:27:42;;;;;;;8.37;4.03;;;33.50;72.50;;;;;;6742449;87;20205;-77
2021/06/15 13:37:51;;;;;;;9.35;3.80;;;32.30;71.90;;;;;;6746616;87;20992;-76
2021/06/15 13:47:52;;;;;;;8.70;3.67;;;33.30;70.80;;;;;;6738060;87;20187;-77
2021/06/15 13:57:52;;;;;;;6.12;3.25;;;33.70;70.10;;;;;;6738726;87;20256;-78
2021/06/15 14:07:53;;;;;;;6.60;3.43;;;33.90;69.50;;;;;;6745362;87;20361;-79
2021/06/15 14:17:54;;;;;;;6.32;3.10;;;33.80;69.00;;;;;;6743616;87;20208;-77
2021/06/15 14:27:57;;;;;;;;;;;33.90;68.70;;;;;;6735304;87;20168;-76
2021/06/15 14:37:57;;;;;;;6.60;2.80;;;33.10;69.60;;;;;;6739183;87;20054;-77
2021/06/15 14:47:58;;;;;;;3.58;2.55;;;33.80;68.80;;;;;;6737935;87;20198;-77
2021/06/15 14:57:58;;;;;;;5.68;2.80;;;33.30;68.60;;;;;;6738250;87;20183;-77
2021/06/15 15:07:59;;;;;;;4.60;2.90;;;32.70;69.40;;;;;;6740338;87;20298;-76
2021/06/15 15:17:59;;;;;;;8.03;2.77;;;33.10;68.80;;;;;;6746364;87;20199;-77
2021/06/15 15:28:00;;;;;;;5.07;2.75;;;32.70;69.40;;;;;;6749711;87;21026;-76
2021/06/15 15:38:01;;;;;;;6.00;3.10;;;32.80;69.50;;;;;;6757401;87;20325;-76
2021/06/15 15:48:01;;;;;;;3.03;2.53;;;33.50;68.50;;;;;;6755622;87;20227;-78
2021/06/15 15:58:04;;;;;;;4.07;2.60;;;33.10;68.80;;;;;;6749537;87;20196;-76
2021/06/15 16:08:05;;;;;;;7.32;3.00;;;32.90;69.10;;;;;;6744497;87;20193;-75
2021/06/15 16:18:07;;;;;;;5.15;2.60;;;33.10;69.20;;;;;;6745665;87;20212;-74
2021/06/15 16:28:11;;;;;;;4.22;3.00;;;32.40;70.00;;;;;;6744429;87;20235;-77
2021/06/15 16:38:12;;;;;;;4.68;2.78;;;31.20;74.50;;;;;;6743910;87;20336;-76
2021/06/15 16:48:12;;;;;;;4.72;2.95;;;30.30;76.20;;;;;;6748529;87;20185;-74
2021/06/15 16:58:14;;;;;;;5.10;3.00;;;30.30;75.70;;;;;;6749148;87;20887;-76
2021/06/15 17:08:15;;;;;;;4.80;3.20;;;29.90;76.00;;;;;;6760969;88;20205;-79
2021/06/15 17:18:17;;;;;;;4.30;3.40;;;30.10;75.50;;;;;;6751467;87;20206;-74
2021/06/15 17:28:18;;;;;;;4.03;2.90;;;30.30;75.00;;;;;;6743966;87;20249;-76
2021/06/15 17:38:20;;;;;;;5.10;2.90;;;30.10;75.30;;;;;;6745428;87;20205;-76
2021/06/15 17:48:21;;;;;;;9.45;2.90;;;30.00;75.10;;;;;;6750500;87;20198;-75
2021/06/15 17:58:22;;;;;;;7.37;2.93;;;29.60;76.00;;;;;;6746724;87;20346;-76
2021/06/15 18:08:26;;;;;;;5.93;2.70;;;29.10;76.50;;;;;;6742056;87;20335;-76
2021/06/15 18:18:27;;;;;;;3.72;2.40;;;29.20;76.00;;;;;;6740311;87;20775;-76
2021/06/15 18:28:27;;;;;;;5.93;2.33;;;29.40;75.30;;;;;;6748041;87;20196;-76
2021/06/15 18:38:28;;;;;;;3.33;2.20;;;28.60;77.00;;;;;;6746003;87;20209;-76
2021/06/15 18:48:28;;;;;;;4.15;2.62;;;28.10;78.80;;;;;;6746548;87;20799;-76
2021/06/15 18:58:29;;;;;;;6.60;3.00;;;27.50;80.80;;;;;;6741742;87;20593;-77
2021/06/15 19:08:30;;;;;;;4.45;2.60;;;27.10;82.50;;;;;;6748311;88;20181;-77
2021/06/15 19:18:30;;;;;;;4.20;2.50;;;26.80;82.60;;;;;;6751172;87;20242;-76
2021/06/15 19:28:31;;;;;;;3.45;2.50;;;26.40;83.60;;;;;;6737705;87;20208;-76
2021/06/15 19:38:32;;;;;;;5.28;2.75;;;26.20;85.00;;;;;;6745363;87;20334;-76
2021/06/15 19:48:33;;;;;;;4.40;2.67;;;25.90;86.50;;;;;;6743958;87;20237;-76
2021/06/15 19:58:34;;;;;;;5.07;2.60;;;25.60;88.70;;;;;;6734963;88;20595;-77
2021/06/15 20:08:35;;;;;;;4.82;2.67;;;25.30;89.20;;;;;;6736526;88;20306;-75
2021/06/15 20:18:39;;;;;;;4.05;2.50;;;25.20;89.20;;;;;;6747813;88;20184;-76
2021/06/15 20:28:42;;;;;;;3.10;2.05;;;24.90;89.40;;;;;;6745160;87;20306;-76
2021/06/15 20:38:42;;;;;;;3.17;2.40;;;24.80;89.50;;;;;;6748518;87;20740;-77
2021/06/15 20:48:43;;;;;;;4.10;2.28;;;24.50;90.00;;;;;;6751846;87;20205;-77
2021/06/15 20:58:44;;;;;;;6.05;2.47;;;24.40;90.80;;;;;;6748057;87;20232;-77
2021/06/15 21:08:45;;;;;;;4.50;2.40;;;24.10;91.70;;;;;;6750246;87;20192;-77
2021/06/15 21:18:46;;;;;;;4.57;2.25;;;23.70;92.40;;;;;;6740363;87;20201;-78
2021/06/15 21:28:49;;;;;;;8.18;2.50;;;23.70;92.30;;;;;;6745193;87;20615;-76
2021/06/15 21:38:50;;;;;;;4.43;2.40;;;23.50;93.00;;;;;;6741363;88;20267;-75
2021/06/15 21:48:50;;;;;;;6.15;2.60;;;23.40;93.60;;;;;;6744040;88;20180;-75
2021/06/15 21:58:51;;;;;;;3.62;2.40;;;23.30;94.40;;;;;;6750513;87;20229;-76
2021/06/15 22:08:52;;;;;;;5.78;2.50;;;23.00;95.00;;;;;;6752635;88;20227;-75
2021/06/15 22:18:53;;;;;;;4.03;2.80;;;22.90;96.00;;;;;;6750336;88;20192;-75
2021/06/15 22:28:53;;;;;;;5.07;2.42;;;22.60;97.10;;;;;;6749978;88;20286;-76
2021/06/15 22:38:54;;;;;;;4.30;2.35;;;22.50;97.60;;;;;;6749888;88;20213;-77
2021/06/15 22:48:54;;;;;;;3.83;2.78;;;22.30;99.20;;;;;;6750232;88;20216;-77
2021/06/15 22:58:55;;;;;;;5.72;3.15;;;22.30;99.60;;;;;;6740290;88;20194;-76
2021/06/15 23:08:55;;;;;;;6.87;2.90;;;22.30;99.90;;;;;;6736917;88;20315;-76
2021/06/15 23:18:56;;;;;;;4.68;2.85;;;22.30;99.90;;;;;;6736911;88;20607;-76
2021/06/15 23:28:56;;;;;;;6.37;2.72;;;22.20;99.90;;;;;;6744834;88;20688;-77
2021/06/15 23:38:57;;;;;;;6.60;2.80;;;22.40;99.90;;;;;;6747605;87;20246;-76
2021/06/15 23:48:57;;;;;;;3.78;2.70;;;22.40;99.90;;;;;;6741878;88;20201;-76
2021/06/15 23:58:58;;;;;;;3.80;2.80;;;22.10;99.90;;;;;;6742178;88;20185;-76
